Time;durP1;ratioP1;P1;durP2;ratioP2;P2;SDS_P1;SDS_P2;PMS_P1;PMS_P2;Temp;Humidity;BMP_temperature;BMP_pressure;BME280_temperature;BME280_humidity;BME280_pressure;Samples;Min_cycle;Max_cycle;Signal;HPM_P1;HPM_P2
2022/01/12 00:00:55;;;;;;;;;;;;;;;-1.03;59.11;101304.13;4445847;32;19965;-91
2022/01/12 00:03:20;;;;;;;;;;;;;;;-0.99;59.11;101303.44;4446182;32;19993;-91
2022/01/12 00:05:46;;;;;;;;;;;;;;;-0.94;59.11;101309.62;4445762;32;20013;-91
2022/01/12 00:08:11;;;;;;;;;;;;;;;-0.82;59.12;101304.09;4458580;32;19998;-92
2022/01/12 00:10:38;;;;;;;;;;;;;;;-1.13;59.11;101307.16;4445444;32;20012;-91
2022/01/12 00:13:03;;;;;;;;;;;;;;;-1.10;59.10;101303.03;4446080;32;19996;-91
2022/01/12 00:15:28;;;;;;;;;;;;;;;-0.95;59.11;101313.88;4445586;32;20365;-90
2022/01/12 00:17:54;;;;;;;;;;;;;;;-0.69;59.13;101306.34;4458377;32;20020;-91
2022/01/12 00:20:19;;;;;;;;;;;;;;;-0.71;59.13;101303.72;4445710;32;20344;-92
2022/01/12 00:22:44;;;;;;;;;;;;;;;-0.53;59.14;101300.97;4445370;32;20020;-91
2022/01/12 00:33:11;;;;;;;;;;;;;;;-0.66;59.13;101315.00;4460398;32;20059;-90
2022/01/12 00:35:37;;;;;;;;;;;;;;;-0.55;59.14;101317.06;4445125;32;20664;-89
2022/01/12 00:38:02;;;;;;;;;;;;;;;-1.01;59.12;101325.50;4445317;32;20001;-92
2022/01/12 00:40:27;;;;;;;;;;;;;;;-1.02;59.12;101329.75;4445552;32;20257;-92
2022/01/12 00:42:53;;;;;;;;;;;;;;;-1.14;59.11;101318.19;4445818;32;20021;-91
2022/01/12 00:45:18;;;;;;;;;;;;;;;-0.98;59.11;101329.06;4445083;32;20249;-92
2022/01/12 00:47:44;;;;;;;;;;;;;;;-1.03;59.11;101335.69;4446013;32;19984;-95
2022/01/12 00:50:09;;;;;;;;;;;;;;;-0.98;59.11;101336.72;4459539;32;19972;-95
2022/01/12 00:52:34;;;;;;;;;;;;;;;-1.00;59.11;101333.22;4459059;32;20031;-93
2022/01/12 00:55:00;;;;;;;;;;;;;;;-1.06;59.11;101338.09;4446252;32;19997;-94
2022/01/12 00:57:25;;;;;;;;;;;;;;;-0.90;59.12;101328.50;4445961;32;19980;-91
2022/01/12 00:59:50;;;;;;;;;;;;;;;-1.17;59.10;101334.25;4445135;32;20008;-90
2022/01/12 01:02:15;;;;;;;;;;;;;;;-1.18;59.10;101341.84;4444296;32;19988;-91
2022/01/12 01:04:40;;;;;;;;;;;;;;;-1.09;59.10;101337.12;4444529;32;19980;-91
2022/01/12 01:07:06;;;;;;;;;;;;;;;-1.10;59.10;101333.69;4444093;32;20247;-91
2022/01/12 01:09:34;;;;;;;;;;;;;;;-0.96;59.11;101334.22;4444074;32;20020;-91
2022/01/12 01:12:00;;;;;;;;;;;;;;;-1.33;59.09;101335.31;4444693;32;20289;-91
2022/01/12 01:14:48;;;;;;;;;;;;;;;-1.21;59.10;101331.50;4444262;32;20022;-91
2022/01/12 01:25:28;;;;;;;;;;;;;;;-1.16;59.11;101333.44;4446821;32;19995;-91
2022/01/12 01:25:32;;;;;;;;;;;;;;;-1.47;59.08;101338.09;4460514;32;20018;-90
2022/01/12 01:28:01;;;;;;;;;;;;;;;-1.58;59.08;101343.62;4443845;32;21023;-89
2022/01/12 01:30:26;;;;;;;;;;;;;;;-1.57;59.08;101339.41;4443439;32;19981;-89
2022/01/12 01:32:52;;;;;;;;;;;;;;;-1.64;59.07;101348.47;4443409;32;20028;-90
2022/01/12 01:35:18;;;;;;;;;;;;;;;-1.55;59.08;101342.88;4443340;32;20011;-88
2022/01/12 01:37:44;;;;;;;;;;;;;;;-1.57;59.08;101341.94;4443399;32;20026;-90
2022/01/12 01:40:09;;;;;;;;;;;;;;;-1.59;59.08;101341.87;4443262;32;20020;-90
2022/01/12 01:53:34;;;;;;;;;;;;;;;-2.20;59.04;101357.06;4459507;32;20029;-90
2022/01/12 01:55:59;;;;;;;;;;;;;;;-2.33;59.03;101366.66;4443509;32;20561;-90
2022/01/12 01:58:24;;;;;;;;;;;;;;;-2.33;59.03;101366.66;4442492;32;20028;-90
2022/01/12 02:00:49;;;;;;;;;;;;;;;-2.52;59.02;101372.59;4455579;32;20590;-90
2022/01/12 02:03:15;;;;;;;;;;;;;;;-2.48;59.02;101370.25;4443360;32;20036;-89
2022/01/12 02:05:41;;;;;;;;;;;;;;;-2.34;59.03;101373.44;4442962;32;19993;-90
2022/01/12 02:08:06;;;;;;;;;;;;;;;-2.50;59.02;101363.31;4442569;32;20367;-89
2022/01/12 02:10:31;;;;;;;;;;;;;;;-2.64;59.01;101366.91;4442936;32;19988;-90
2022/01/12 02:12:57;;;;;;;;;;;;;;;-2.59;59.02;101368.00;4444919;32;20007;-92
2022/01/12 02:15:23;;;;;;;;;;;;;;;-2.55;59.02;101370.78;4444938;32;20009;-93
2022/01/12 02:18:05;;;;;;;;;;;;;;;-2.67;59.02;101366.75;4445396;32;20002;-92
2022/01/12 02:50:56;;;;;;;;;;;;;;;-3.24;58.98;101383.53;5145522;26;20626;-96
2022/01/12 03:19:31;;;;;;;;;;;;;;;-3.00;59.00;101386.41;4496893;26;19989;-95
2022/01/12 03:21:56;;;;;;;;;;;;;;;-3.16;58.98;101384.78;4460740;32;19984;-95
2022/01/12 03:26:52;;;;;;;;;;;;;;;-3.15;58.99;101394.16;4486899;32;20036;-95
2022/01/12 03:29:18;;;;;;;;;;;;;;;-2.93;59.00;101389.31;4461477;32;19988;-95
2022/01/12 03:31:43;;;;;;;;;;;;;;;-3.07;58.99;101392.91;4461347;32;20297;-94
2022/01/12 03:34:24;;;;;;;;;;;;;;;-3.25;58.98;101390.31;4463069;32;20004;-94
2022/01/12 03:39:18;;;;;;;;;;;;;;;-3.39;58.97;101393.81;4475677;32;20001;-92
2022/01/12 03:41:43;;;;;;;;;;;;;;;-3.30;58.97;101395.97;4462426;32;19984;-93
2022/01/12 03:44:09;;;;;;;;;;;;;;;-3.19;58.99;101393.16;4461377;32;20286;-92
2022/01/12 03:46:38;;;;;;;;;;;;;;;-3.37;58.98;101386.25;4454955;32;20284;-93
2022/01/12 03:49:03;;;;;;;;;;;;;;;-3.23;58.98;101380.19;4459421;32;19996;-92
2022/01/12 03:51:29;;;;;;;;;;;;;;;-3.33;58.98;101380.50;4446265;32;20320;-92
2022/01/12 03:53:54;;;;;;;;;;;;;;;-3.22;58.98;101379.41;4459518;32;19981;-92
2022/01/12 03:56:19;;;;;;;;;;;;;;;-3.40;58.97;101382.75;4458622;32;20711;-94
2022/01/12 03:58:45;;;;;;;;;;;;;;;-3.45;58.97;101391.84;4459119;32;20007;-92
2022/01/12 04:01:10;;;;;;;;;;;;;;;-3.23;58.98;101398.03;4459214;32;19988;-93
2022/01/12 04:03:40;;;;;;;;;;;;;;;-3.35;58.97;101400.81;4459015;32;19985;-92
2022/01/12 04:08:49;;;;;;;;;;;;;;;-3.25;58.98;101400.50;4460848;32;19995;-92
2022/01/12 04:11:14;;;;;;;;;;;;;;;-3.14;58.98;101399.34;4458132;32;20004;-91
2022/01/12 04:13:42;;;;;;;;;;;;;;;-3.29;58.97;101405.38;4457838;32;20002;-91
2022/01/12 04:16:07;;;;;;;;;;;;;;;-3.36;58.97;101395.66;4458051;32;19984;-91
2022/01/12 04:18:33;;;;;;;;;;;;;;;-3.43;58.97;101397.88;4458602;32;20027;-92
2022/01/12 04:21:01;;;;;;;;;;;;;;;-3.33;58.98;101398.34;4446011;32;19987;-91
2022/01/12 04:23:26;;;;;;;;;;;;;;;-3.14;58.98;101388.28;4458550;32;20329;-91
2022/01/12 04:25:56;;;;;;;;;;;;;;;-3.45;58.97;101396.06;4457680;32;20045;-91
2022/01/12 04:28:21;;;;;;;;;;;;;;;-3.23;58.98;101393.81;4445310;32;20031;-91
2022/01/12 04:30:47;;;;;;;;;;;;;;;-3.16;58.98;101392.41;4458160;32;20303;-91
2022/01/12 04:33:12;;;;;;;;;;;;;;;-3.18;58.99;101396.56;4445171;32;19984;-91
2022/01/12 04:35:45;;;;;;;;;;;;;;;-3.36;58.97;101395.66;4458083;32;20004;-90
2022/01/12 04:38:11;;;;;;;;;;;;;;;-3.28;58.97;101399.47;4458364;32;20000;-91
2022/01/12 04:40:36;;;;;;;;;;;;;;;-3.41;58.96;101405.59;4444652;32;19991;-89
2022/01/12 04:43:02;;;;;;;;;;;;;;;-3.52;58.96;101404.19;4443733;32;20008;-89
2022/01/12 04:50:53;;;;;;;;;;;;;;;-3.86;58.94;101416.84;4442312;32;20033;-90
2022/01/12 04:53:19;;;;;;;;;;;;;;;-3.69;58.96;101410.97;4443719;32;20280;-90
2022/01/12 04:55:44;;;;;;;;;;;;;;;-3.59;58.96;101410.63;4444094;32;19993;-91
2022/01/12 04:58:10;;;;;;;;;;;;;;;-3.66;58.96;101412.78;4457643;32;19992;-91
2022/01/12 05:00:35;;;;;;;;;;;;;;;-3.78;58.94;101418.12;4457650;32;19999;-90
2022/01/12 05:13:38;;;;;;;;;;;;;;;-4.04;58.93;101427.78;4461593;32;20265;-94
2022/01/12 05:16:04;;;;;;;;;;;;;;;-3.94;58.93;101429.16;4459613;32;20000;-94
2022/01/12 05:18:59;;;;;;;;;;;;;;;-3.96;58.94;101434.97;4459963;32;20030;-93
2022/01/12 05:21:24;;;;;;;;;;;;;;;-3.91;58.93;101433.53;4460081;32;19977;-91
2022/01/12 05:23:50;;;;;;;;;;;;;;;-3.99;58.93;101427.16;4458690;32;20014;-92
2022/01/12 05:26:15;;;;;;;;;;;;;;;-3.94;58.93;101433.37;4458061;32;20015;-91
2022/01/12 05:28:40;;;;;;;;;;;;;;;-3.95;58.94;101439.25;4457998;32;19992;-91
2022/01/12 05:31:06;;;;;;;;;;;;;;;-3.82;58.95;101434.88;4457822;32;20078;-91
2022/01/12 05:33:31;;;;;;;;;;;;;;;-3.96;58.94;101445.12;4445243;32;19977;-90
2022/01/12 05:35:57;;;;;;;;;;;;;;;-3.75;58.95;101436.09;4456443;32;20020;-90
2022/01/12 05:38:22;;;;;;;;;;;;;;;-3.72;58.95;101437.13;4443887;32;19969;-91
2022/01/12 05:40:49;;;;;;;;;;;;;;;-3.88;58.94;101438.78;4456570;32;19997;-90
2022/01/12 05:43:16;;;;;;;;;;;;;;;-3.94;58.93;101433.37;4443012;32;20025;-89
2022/01/12 05:45:44;;;;;;;;;;;;;;;-3.95;58.94;101426.53;4456055;32;20000;-88
2022/01/12 05:50:35;;;;;;;;;;;;;;;-3.88;58.94;101429.47;4455956;32;19981;-90
2022/01/12 05:53:00;;;;;;;;;;;;;;;-3.93;58.93;101430.03;4456462;32;20325;-89
2022/01/12 05:55:25;;;;;;;;;;;;;;;-3.74;58.95;101438.72;4455970;32;19993;-89
2022/01/12 05:57:51;;;;;;;;;;;;;;;-3.83;58.95;101440.75;4456222;32;20014;-90
2022/01/12 06:00:17;;;;;;;;;;;;;;;-3.89;58.94;101444.66;4456093;32;19973;-90
2022/01/12 06:02:42;;;;;;;;;;;;;;;-3.84;58.95;101444.09;4442902;32;20334;-89
2022/01/12 06:05:08;;;;;;;;;;;;;;;-3.77;58.96;101452.94;4455931;32;20062;-90
2022/01/12 06:07:33;;;;;;;;;;;;;;;-3.86;58.94;101453.31;4442961;32;20333;-89
2022/01/12 06:09:58;;;;;;;;;;;;;;;-3.90;58.94;101455.62;4455997;32;19977;-90
2022/01/12 06:12:23;;;;;;;;;;;;;;;-3.78;58.94;101456.28;4456063;32;19972;-90
2022/01/12 06:14:49;;;;;;;;;;;;;;;-3.66;58.95;101462.00;4456117;32;20004;-89
2022/01/12 06:17:14;;;;;;;;;;;;;;;-3.77;58.95;101464.00;4456193;32;20057;-89
2022/01/12 06:19:39;;;;;;;;;;;;;;;-3.85;58.94;101477.09;4456015;32;20008;-90
2022/01/12 06:22:04;;;;;;;;;;;;;;;-3.77;58.95;101473.31;4456341;32;19999;-90
2022/01/12 06:24:30;;;;;;;;;;;;;;;-3.88;58.94;101484.56;4455694;32;19989;-90
2022/01/12 06:26:55;;;;;;;;;;;;;;;-3.74;58.95;101483.66;4456257;32;20062;-89
2022/01/12 06:31:47;;;;;;;;;;;;;;;-3.75;58.95;101477.69;4456226;32;20277;-91
2022/01/12 06:34:12;;;;;;;;;;;;;;;-3.66;58.95;101482.38;4456333;32;19985;-90
2022/01/12 06:36:37;;;;;;;;;;;;;;;-3.60;58.96;101477.59;4456327;32;20024;-90
2022/01/12 06:39:04;;;;;;;;;;;;;;;-3.87;58.94;101486.31;4455880;32;19976;-89
2022/01/12 06:41:29;;;;;;;;;;;;;;;-3.84;58.95;101486.47;4443064;32;19985;-90
2022/01/12 06:43:55;;;;;;;;;;;;;;;-4.04;58.93;101487.94;4455986;32;20012;-91
2022/01/12 06:46:25;;;;;;;;;;;;;;;-3.94;58.94;101487.66;4455506;32;20330;-89
2022/01/12 06:48:50;;;;;;;;;;;;;;;-3.84;58.95;101491.56;4443525;32;19989;-90
2022/01/12 06:51:16;;;;;;;;;;;;;;;-3.88;58.94;101495.63;4455547;32;19995;-91
2022/01/12 06:53:41;;;;;;;;;;;;;;;-3.93;58.94;101499.59;4456135;32;19985;-89
2022/01/12 06:56:08;;;;;;;;;;;;;;;-3.94;58.94;101507.13;4442731;32;20329;-89
2022/01/12 06:58:33;;;;;;;;;;;;;;;-3.81;58.94;101502.78;4455870;32;19987;-89
2022/01/12 07:00:58;;;;;;;;;;;;;;;-4.05;58.94;101506.53;4455973;32;20004;-89
2022/01/12 07:03:23;;;;;;;;;;;;;;;-4.00;58.93;101509.34;4455469;32;19997;-90
2022/01/12 07:05:49;;;;;;;;;;;;;;;-4.08;58.93;101514.00;4455847;32;19980;-89
2022/01/12 07:08:14;;;;;;;;;;;;;;;-3.77;58.95;101503.84;4456607;32;20003;-91
2022/01/12 07:10:39;;;;;;;;;;;;;;;-3.68;58.95;101503.44;4457050;32;20306;-89
2022/01/12 07:13:05;;;;;;;;;;;;;;;-3.72;58.95;101505.81;4456846;32;20012;-89
2022/01/12 07:15:30;;;;;;;;;;;;;;;-3.79;58.95;101515.56;4456284;32;20022;-87
2022/01/12 07:17:55;;;;;;;;;;;;;;;-3.71;58.95;101529.59;4456108;32;25988;-90
2022/01/12 07:20:20;;;;;;;;;;;;;;;-3.53;58.97;101519.53;4456915;32;19976;-87
2022/01/12 07:22:46;;;;;;;;;;;;;;;-3.67;58.96;101528.09;4456381;32;19993;-88
2022/01/12 07:25:11;;;;;;;;;;;;;;;-3.64;58.96;101534.22;4456398;32;20004;-91
2022/01/12 07:27:36;;;;;;;;;;;;;;;-3.58;58.96;101542.16;4456584;32;19995;-89
2022/01/12 07:30:02;;;;;;;;;;;;;;;-3.44;58.97;101536.16;4456674;32;20306;-88
2022/01/12 07:32:27;;;;;;;;;;;;;;;-3.45;58.97;101536.94;4444116;32;20008;-89
2022/01/12 07:34:53;;;;;;;;;;;;;;;-3.35;58.97;101535.75;4457019;32;19989;-88
2022/01/12 07:37:18;;;;;;;;;;;;;;;-3.15;58.98;101537.66;4471506;32;19973;-89
2022/01/12 07:39:43;;;;;;;;;;;;;;;-3.21;58.98;101546.66;4456630;32;20340;-88
2022/01/12 07:42:08;;;;;;;;;;;;;;;-3.13;58.99;101541.16;4456538;32;20000;-88
2022/01/12 07:44:34;;;;;;;;;;;;;;;-2.86;59.00;101539.16;4456559;32;19985;-88
2022/01/12 07:46:59;;;;;;;;;;;;;;;-3.01;58.99;101543.47;4456589;32;19992;-88
2022/01/12 07:49:24;;;;;;;;;;;;;;;-2.97;59.00;101545.37;4456420;32;20246;-87
2022/01/12 07:51:49;;;;;;;;;;;;;;;-3.04;58.99;101545.87;4456416;32;20098;-89
2022/01/12 07:54:15;;;;;;;;;;;;;;;-2.86;59.00;101551.00;4456195;32;19996;-88
2022/01/12 07:56:40;;;;;;;;;;;;;;;-2.76;59.02;101550.69;4456532;32;20294;-86
2022/01/12 07:59:05;;;;;;;;;;;;;;;-2.82;59.01;101550.41;4443275;32;19996;-86
2022/01/12 08:01:30;;;;;;;;;;;;;;;-2.84;59.00;101560.50;4456203;32;19974;-87
2022/01/12 08:03:56;;;;;;;;;;;;;;;-2.60;59.02;101558.31;4455496;32;25397;-89
2022/01/12 08:06:21;;;;;;;;;;;;;;;-2.57;59.02;101563.56;4456103;32;19992;-88
2022/01/12 08:08:46;;;;;;;;;;;;;;;-2.41;59.03;101560.06;4456201;32;19983;-88
2022/01/12 08:11:12;;;;;;;;;;;;;;;-2.26;59.03;101559.97;4455424;32;19981;-87
2022/01/12 08:13:39;;;;;;;;;;;;;;;-2.10;59.06;101562.47;4455282;32;20071;-87
2022/01/12 08:16:04;;;;;;;;;;;;;;;-1.97;59.05;101566.47;4455385;32;19995;-90
2022/01/12 08:18:29;;;;;;;;;;;;;;;-1.81;59.07;101556.19;4454664;32;20012;-88
2022/01/12 08:20:55;;;;;;;;;;;;;;;-1.70;59.07;101556.66;4454784;32;20019;-90
2022/01/12 08:23:20;;;;;;;;;;;;;;;-1.80;59.07;101546.84;4455333;32;20009;-88
2022/01/12 08:25:45;;;;;;;;;;;;;;;-1.61;59.07;101552.00;4455056;32;20002;-89
2022/01/12 08:28:10;;;;;;;;;;;;;;;-1.40;59.09;101559.75;4455225;32;20302;-88
2022/01/12 08:30:36;;;;;;;;;;;;;;;-1.41;59.09;101565.69;4455073;32;20042;-87
2022/01/12 08:33:01;;;;;;;;;;;;;;;-1.42;59.09;101571.56;4455293;32;20000;-89
2022/01/12 08:35:27;;;;;;;;;;;;;;;-1.41;59.09;101579.31;4455275;32;20349;-89
2022/01/12 08:37:52;;;;;;;;;;;;;;;-1.53;59.08;101578.75;4455040;32;19985;-90
2022/01/12 08:40:18;;;;;;;;;;;;;;;-1.68;59.07;101578.03;4454965;32;20141;-90
2022/01/12 08:42:44;;;;;;;;;;;;;;;-1.70;59.07;101584.75;4455409;32;20328;-90
2022/01/12 08:45:09;;;;;;;;;;;;;;;-1.62;59.07;101583.44;4456048;32;20022;-90
2022/01/12 08:47:35;;;;;;;;;;;;;;;-1.44;59.08;101575.72;4456094;32;20018;-90
2022/01/12 08:50:00;;;;;;;;;;;;;;;-1.29;59.10;101584.09;4455580;32;20317;-90
2022/01/12 08:52:27;;;;;;;;;;;;;;;-1.45;59.08;101576.53;4455689;32;20052;-90
2022/01/12 08:54:52;;;;;;;;;;;;;;;-1.25;59.09;101581.75;4443185;32;21178;-89
2022/01/12 08:57:18;;;;;;;;;;;;;;;-1.23;59.10;101581.81;4442780;32;20017;-92
2022/01/12 08:59:44;;;;;;;;;;;;;;;-0.98;59.11;101583.78;4455905;32;20001;-91
2022/01/12 09:02:11;;;;;;;;;;;;;;;-0.99;59.11;101582.03;4455896;32;19992;-90
2022/01/12 09:04:36;;;;;;;;;;;;;;;-1.07;59.11;101575.72;4456401;32;19988;-90
2022/01/12 09:07:02;;;;;;;;;;;;;;;-0.97;59.12;101575.28;4455998;32;19977;-90
2022/01/12 09:09:28;;;;;;;;;;;;;;;-0.93;59.12;101575.53;4456237;32;19988;-90
2022/01/12 09:11:53;;;;;;;;;;;;;;;-0.91;59.12;101573.03;4456094;32;20042;-91
2022/01/12 09:14:18;;;;;;;;;;;;;;;-0.80;59.12;101565.81;4455621;32;19996;-92
2022/01/12 09:16:44;;;;;;;;;;;;;;;-0.71;59.13;101571.31;4456083;32;20015;-91
2022/01/12 09:19:09;;;;;;;;;;;;;;;-0.57;59.14;101561.66;4442935;32;19993;-91
2022/01/12 09:21:34;;;;;;;;;;;;;;;-0.49;59.15;101573.06;4456017;32;20055;-90
2022/01/12 09:24:00;;;;;;;;;;;;;;;-0.38;59.14;101561.63;4455865;32;20044;-90
2022/01/12 09:26:25;;;;;;;;;;;;;;;-0.26;59.15;101563.78;4455634;32;19977;-90
2022/01/12 09:28:50;;;;;;;;;;;;;;;-0.29;59.15;101561.12;4442060;32;19980;-89
2022/01/12 09:31:16;;;;;;;;;;;;;;;-0.19;59.16;101568.38;4442223;32;20318;-91
2022/01/12 09:33:41;;;;;;;;;;;;;;;-0.10;59.16;101563.59;4456094;32;19969;-90
2022/01/12 09:36:07;;;;;;;;;;;;;;;-0.13;59.17;101563.50;4455837;32;19972;-89
2022/01/12 09:38:33;;;;;;;;;;;;;;;-0.03;59.17;101557.91;4455024;32;20062;-91
2022/01/12 09:40:58;;;;;;;;;;;;;;;0.28;59.18;101555.75;4455674;32;20024;-90
2022/01/12 09:43:25;;;;;;;;;;;;;;;0.09;59.18;101553.28;4455485;32;20259;-89
2022/01/12 09:45:51;;;;;;;;;;;;;;;0.01;59.18;101554.69;4455674;32;20594;-90
2022/01/12 09:48:18;;;;;;;;;;;;;;;0.22;59.18;101564.88;4442844;32;20323;-90
2022/01/12 09:50:43;;;;;;;;;;;;;;;0.06;59.17;101572.78;4456044;32;20007;-91
2022/01/12 09:53:09;;;;;;;;;;;;;;;0.14;59.17;101561.16;4455641;32;20001;-89
2022/01/12 09:55:34;;;;;;;;;;;;;;;0.05;59.17;101566.78;4455795;32;19977;-90
2022/01/12 09:57:59;;;;;;;;;;;;;;;0.27;59.19;101563.38;4442495;32;20352;-90
2022/01/12 10:00:25;;;;;;;;;;;;;;;0.35;59.19;101568.78;4455532;32;20021;-90
2022/01/12 10:02:51;;;;;;;;;;;;;;;0.51;59.20;101566.00;4442652;32;19995;-89
2022/01/12 10:08:07;;;;;;;;;;;;;;;0.62;59.21;101563.00;4457226;32;20030;-90
2022/01/12 10:10:32;;;;;;;;;;;;;;;0.55;59.20;101570.41;4442517;32;19989;-90
2022/01/12 10:12:58;;;;;;;;;;;;;;;0.62;59.20;101565.56;4455087;32;20008;-89
2022/01/12 10:15:27;;;;;;;;;;;;;;;0.72;59.21;101560.81;4455271;32;19977;-89
2022/01/12 10:17:53;;;;;;;;;;;;;;;0.74;59.22;101549.78;4455466;32;20019;-91
2022/01/12 10:20:19;;;;;;;;;;;;;;;0.97;59.23;101558.31;4455487;32;20061;-90
2022/01/12 10:22:45;;;;;;;;;;;;;;;1.19;59.24;101553.13;4442377;32;19973;-90
2022/01/12 10:25:14;;;;;;;;;;;;;;;1.02;59.23;101555.91;4441174;32;20030;-89
2022/01/12 10:27:40;;;;;;;;;;;;;;;1.11;59.24;101556.22;4454807;32;20009;-89
2022/01/12 10:30:05;;;;;;;;;;;;;;;1.07;59.23;101554.38;4454863;32;20012;-91
2022/01/12 10:32:31;;;;;;;;;;;;;;;1.19;59.24;101550.56;4442321;32;19996;-90
2022/01/12 10:34:59;;;;;;;;;;;;;;;1.32;59.24;101556.97;4455169;32;19976;-90
2022/01/12 10:37:27;;;;;;;;;;;;;;;1.21;59.24;101556.59;4455583;32;20365;-90
2022/01/12 10:39:53;;;;;;;;;;;;;;;1.26;59.25;101553.31;4455670;32;19988;-89
2022/01/12 10:42:19;;;;;;;;;;;;;;;1.15;59.24;101545.25;4441333;32;20019;-90
2022/01/12 10:44:45;;;;;;;;;;;;;;;1.27;59.25;101539.69;4442041;32;20094;-90
2022/01/12 10:47:17;;;;;;;;;;;;;;;1.43;59.25;101547.09;4441974;32;20300;-90
2022/01/12 10:49:58;;;;;;;;;;;;;;;1.58;59.26;101541.56;4442125;32;20007;-91
2022/01/12 10:52:27;;;;;;;;;;;;;;;1.54;59.26;101541.47;4469297;32;19968;-90
2022/01/12 10:54:53;;;;;;;;;;;;;;;1.66;59.26;101537.59;4454823;32;19996;-90
2022/01/12 10:57:18;;;;;;;;;;;;;;;1.71;59.27;101536.91;4454998;32;20006;-89
2022/01/12 10:59:46;;;;;;;;;;;;;;;1.56;59.26;101541.53;4468901;32;20338;-90
2022/01/12 11:02:11;;;;;;;;;;;;;;;1.86;59.28;101549.34;4441871;32;20033;-90
2022/01/12 11:04:40;;;;;;;;;;;;;;;1.93;59.29;101529.88;4454604;32;20451;-90
2022/01/12 11:07:06;;;;;;;;;;;;;;;2.04;59.28;101534.50;4454305;32;19993;-89
2022/01/12 11:09:31;;;;;;;;;;;;;;;1.90;59.28;101528.09;4453851;32;20025;-90
2022/01/12 11:11:56;;;;;;;;;;;;;;;1.98;59.29;101531.75;4454070;32;20242;-87
2022/01/12 11:14:21;;;;;;;;;;;;;;;2.03;59.28;101530.19;4453758;32;20000;-90
2022/01/12 11:16:47;;;;;;;;;;;;;;;2.05;59.29;101533.69;4454359;32;19992;-89
2022/01/12 11:19:12;;;;;;;;;;;;;;;1.89;59.27;101538.28;4454021;32;20038;-89
2022/01/12 11:21:41;;;;;;;;;;;;;;;1.98;59.28;101538.59;4454268;32;20084;-89
2022/01/12 11:24:07;;;;;;;;;;;;;;;1.96;59.28;101537.69;4441487;32;20016;-88
2022/01/12 11:26:33;;;;;;;;;;;;;;;1.94;59.29;101531.63;4453976;32;20361;-90
2022/01/12 11:28:58;;;;;;;;;;;;;;;1.90;59.27;101533.22;4453945;32;20051;-89
2022/01/12 11:31:24;;;;;;;;;;;;;;;1.91;59.27;101527.28;4454006;32;19981;-88
2022/01/12 11:33:50;;;;;;;;;;;;;;;2.08;59.29;101535.47;4441104;32;20044;-89
2022/01/12 11:36:26;;;;;;;;;;;;;;;2.17;59.29;101540.91;4454024;32;20523;-89
2022/01/12 11:38:57;;;;;;;;;;;;;;;2.18;59.30;101534.94;4454138;32;19970;-89
2022/01/12 11:41:23;;;;;;;;;;;;;;;2.49;59.31;101523.88;4440971;32;19981;-88
2022/01/12 11:43:53;;;;;;;;;;;;;;;2.48;59.31;101524.72;4453532;32;20374;-90
2022/01/12 11:46:22;;;;;;;;;;;;;;;2.35;59.30;101528.59;4468136;32;19999;-88
2022/01/12 11:48:50;;;;;;;;;;;;;;;2.34;59.30;101523.41;4440906;32;20348;-88
2022/01/12 11:51:17;;;;;;;;;;;;;;;2.38;59.31;101526.16;4453908;32;20043;-88
2022/01/12 11:53:50;;;;;;;;;;;;;;;2.56;59.31;101518.06;4454688;32;20374;-88
2022/01/12 11:56:19;;;;;;;;;;;;;;;2.70;59.32;101509.06;4442897;32;20368;-89
2022/01/12 11:59:03;;;;;;;;;;;;;;;2.52;59.32;101507.66;4455900;32;20010;-88
2022/01/12 12:01:39;;;;;;;;;;;;;;;2.56;59.31;101505.22;4470153;32;19977;-88
2022/01/12 12:04:04;;;;;;;;;;;;;;;2.36;59.31;101509.78;4443017;32;19999;-89
2022/01/12 12:06:30;;;;;;;;;;;;;;;2.43;59.31;101506.59;4470075;32;19984;-89
2022/01/12 12:09:03;;;;;;;;;;;;;;;2.47;59.31;101515.25;4455917;32;20368;-87
2022/01/12 12:11:28;;;;;;;;;;;;;;;2.42;59.32;101512.56;4442804;32;19977;-88
2022/01/12 12:14:07;;;;;;;;;;;;;;;2.33;59.30;101509.69;4443026;32;20019;-89
2022/01/12 12:16:33;;;;;;;;;;;;;;;2.36;59.31;101504.66;4455642;32;20007;-88
2022/01/12 12:18:58;;;;;;;;;;;;;;;2.54;59.31;101506.00;4455846;32;20040;-88
2022/01/12 12:21:23;;;;;;;;;;;;;;;2.66;59.32;101503.81;4455712;32;19992;-89
2022/01/12 12:23:49;;;;;;;;;;;;;;;2.64;59.33;101506.34;4442588;32;20011;-89
2022/01/12 12:26:15;;;;;;;;;;;;;;;2.88;59.34;101505.28;4455325;32;19984;-88
2022/01/12 12:28:44;;;;;;;;;;;;;;;3.01;59.34;101507.31;4442858;32;20015;-88
2022/01/12 12:31:09;;;;;;;;;;;;;;;2.96;59.34;101507.22;4456211;32;19977;-89
2022/01/12 12:33:35;;;;;;;;;;;;;;;2.85;59.33;101512.91;4455357;32;19991;-89
2022/01/12 12:36:00;;;;;;;;;;;;;;;2.70;59.32;101516.78;4455601;32;20457;-89
2022/01/12 12:38:25;;;;;;;;;;;;;;;2.67;59.32;101513.25;4442328;32;20029;-88
2022/01/12 12:40:53;;;;;;;;;;;;;;;2.38;59.31;101520.12;4455282;32;20007;-89
2022/01/12 12:43:24;;;;;;;;;;;;;;;2.43;59.32;101521.13;4442852;32;20513;-88
2022/01/12 12:45:49;;;;;;;;;;;;;;;2.40;59.31;101521.06;4442861;32;20036;-88
2022/01/12 12:48:15;;;;;;;;;;;;;;;2.10;59.29;101527.00;4469828;32;20038;-88
2022/01/12 12:50:41;;;;;;;;;;;;;;;2.31;59.31;101521.63;4455790;32;19973;-88
2022/01/12 12:53:07;;;;;;;;;;;;;;;2.23;59.30;101511.97;4442673;32;19981;-88
2022/01/12 12:55:36;;;;;;;;;;;;;;;2.31;59.30;101513.91;4455262;32;20019;-89
2022/01/12 12:58:01;;;;;;;;;;;;;;;2.12;59.29;101517.63;4442574;32;20726;-88
2022/01/12 13:00:26;;;;;;;;;;;;;;;2.36;59.31;101503.78;4455546;32;19973;-88
2022/01/12 13:02:52;;;;;;;;;;;;;;;2.38;59.31;101504.72;4455577;32;19988;-86
2022/01/12 13:05:18;;;;;;;;;;;;;;;2.39;59.31;101504.75;4441570;32;20304;-89
2022/01/12 13:07:44;;;;;;;;;;;;;;;2.26;59.30;101504.34;4442476;32;20016;-88
2022/01/12 13:10:15;;;;;;;;;;;;;;;2.47;59.31;101510.12;4442272;32;20019;-87
2022/01/12 13:12:41;;;;;;;;;;;;;;;2.46;59.31;101505.81;4456128;32;19977;-87
2022/01/12 13:15:10;;;;;;;;;;;;;;;2.34;59.30;101500.28;4455378;32;20036;-88
2022/01/12 13:17:38;;;;;;;;;;;;;;;2.32;59.30;101518.22;4455790;32;20015;-89
2022/01/12 13:22:29;;;;;;;;;;;;;;;2.31;59.31;101511.34;4455112;32;19981;-89
2022/01/12 13:24:55;;;;;;;;;;;;;;;2.38;59.31;101502.16;4454754;32;20316;-89
2022/01/12 13:27:21;;;;;;;;;;;;;;;2.44;59.31;101513.47;4455331;32;20042;-87
2022/01/12 13:29:47;;;;;;;;;;;;;;;2.46;59.31;101514.38;4442321;32;20475;-89
2022/01/12 13:32:12;;;;;;;;;;;;;;;2.37;59.31;101510.69;4442367;32;20022;-89
2022/01/12 13:34:42;;;;;;;;;;;;;;;2.21;59.29;101513.62;4455356;32;20301;-89
2022/01/12 13:37:11;;;;;;;;;;;;;;;2.09;59.29;101517.53;4442878;32;20372;-88
2022/01/12 13:39:37;;;;;;;;;;;;;;;2.25;59.30;101511.19;4442028;32;19976;-88
2022/01/12 13:42:02;;;;;;;;;;;;;;;2.20;59.29;101511.87;4454963;32;20061;-89
2022/01/12 13:44:27;;;;;;;;;;;;;;;2.27;59.30;101512.09;4455068;32;20033;-88
2022/01/12 13:47:23;;;;;;;;;;;;;;;2.29;59.30;101517.28;4454760;32;20311;-88
2022/01/12 13:49:48;;;;;;;;;;;;;;;2.31;59.31;101511.34;4444749;32;19999;-88
2022/01/12 13:52:13;;;;;;;;;;;;;;;2.44;59.31;101512.59;4455200;32;19992;-87
2022/01/12 13:54:38;;;;;;;;;;;;;;;2.58;59.33;101510.41;4454304;32;24460;-88
2022/01/12 13:57:05;;;;;;;;;;;;;;;2.54;59.31;101509.44;4469501;32;20093;-88
2022/01/12 13:59:32;;;;;;;;;;;;;;;2.51;59.32;101509.38;4455269;32;19977;-88
2022/01/12 14:01:57;;;;;;;;;;;;;;;2.35;59.30;101508.03;4455129;32;20033;-89
2022/01/12 14:04:28;;;;;;;;;;;;;;;2.31;59.30;101510.47;4455071;32;19988;-88
2022/01/12 14:06:59;;;;;;;;;;;;;;;2.29;59.31;101507.00;4442327;32;20057;-88
2022/01/12 14:09:35;;;;;;;;;;;;;;;2.34;59.30;101510.56;4455332;32;20316;-88
2022/01/12 14:12:10;;;;;;;;;;;;;;;2.13;59.29;101523.66;4456185;32;19996;-87
2022/01/12 14:14:46;;;;;;;;;;;;;;;2.03;59.28;101530.19;4455011;32;19996;-88
2022/01/12 14:17:21;;;;;;;;;;;;;;;2.03;59.29;101531.91;4441988;32;20357;-88
2022/01/12 14:19:53;;;;;;;;;;;;;;;2.14;59.30;101538.25;4441824;32;20642;-87
2022/01/12 14:22:19;;;;;;;;;;;;;;;2.12;59.29;101527.91;4441855;32;19995;-88
2022/01/12 14:24:58;;;;;;;;;;;;;;;1.95;59.28;101530.81;4454639;32;20004;-88
2022/01/12 14:27:23;;;;;;;;;;;;;;;1.71;59.27;101533.47;4441907;32;19988;-89
2022/01/12 14:29:48;;;;;;;;;;;;;;;1.85;59.28;101527.06;4454978;32;20027;-88
2022/01/12 14:32:14;;;;;;;;;;;;;;;1.81;59.28;101523.53;4454747;32;20371;-88